메인 페이지
METAR-TAF:

METAR-TAF

공항 :

베를린 테겔 국제공항

베를린, 독일

위도: 52-34N, 경도: 013-19E, 고도: 37m

현재 날씨관측

예보는 21분 전, 00:50시(UTC)에 발표되었습니다.
10kt서남서풍과 북북서풍을 오가는
온도 18°C
습도 83%
기압 1014 hPa
시정 10km 이상
고도 1300ft 상공 구름 많음

METAR: EDDT 150050Z 28010KT 250V330 9999 BKN013 18/15 Q1014

시각: 03:11 (01:11 UTC)

예보

예보는 2 시간 11분 전, 23:00시(UTC)에 발표되었습니다.
예보 대상 시간: 15일 00시부터 15일 24시까지 (UTC)
9kt
시정 10km 이상
고도 2000ft 상공 구름 보통
확률 30% :
일시적
15일 00시부터 15일 06시까지 (UTC)
고도 1200ft 상공 구름 많음
전환 중
15일 16시부터 15일 19시까지 (UTC)
여러 방향의 바람 3kt

TAF: EDDT 142300Z 1500/1524 28009KT 9999 SCT020 PROB30 TEMPO 1500/1506 BKN012 BECMG 1516/1519 VRB03KT

4,000개 이상의 공항 관측 자료 및 예보 (METAR 및 TAF 보고).

지도상에서 검색 가능한 기상관측소가 노란 점과 빨간 점으로 표시되어 있습니다.

기상관측소 명을 보려면 표시 위로 마우스를 이동하세요.

날씨 관측과 예보를 보려면 클릭하세요.

지도 변경 : 확대하려면 엑스 표시가 있는 녹색 버튼, 축소하려면 빼기 표시가 있는 녹색 버튼, 다음 페이지의 지도를 보려면 녹색 화살표를 클릭하세요.


METAR-TAF: